sensor_id;sensor_type;location;lat;lon;timestamp;temperature;humidity
52565;DHT22;38460;53.106;7.004;2022-07-23T00:00:06;14.80;99.90
52565;DHT22;38460;53.106;7.004;2022-07-23T00:02:32;14.80;99.90
52565;DHT22;38460;53.106;7.004;2022-07-23T00:04:57;14.80;99.90
52565;DHT22;38460;53.106;7.004;2022-07-23T00:07:23;14.70;99.90
52565;DHT22;38460;53.106;7.004;2022-07-23T00:09:49;14.70;99.90
52565;DHT22;38460;53.106;7.004;2022-07-23T00:12:14;14.70;99.90
52565;DHT22;38460;53.106;7.004;2022-07-23T00:14:40;14.70;99.90
52565;DHT22;38460;53.106;7.004;2022-07-23T00:17:06;14.70;99.90
52565;DHT22;38460;53.106;7.004;2022-07-23T00:19:31;14.70;99.90
52565;DHT22;38460;53.106;7.004;2022-07-23T00:21:57;14.60;99.90
52565;DHT22;38460;53.106;7.004;2022-07-23T00:24:23;14.60;99.90
52565;DHT22;38460;53.106;7.004;2022-07-23T00:26:49;14.60;99.90
52565;DHT22;38460;53.106;7.004;2022-07-23T00:29:14;14.60;99.90
52565;DHT22;38460;53.106;7.004;2022-07-23T00:31:40;14.60;99.90
52565;DHT22;38460;53.106;7.004;2022-07-23T00:34:06;14.60;99.90
52565;DHT22;38460;53.106;7.004;2022-07-23T00:36:32;14.60;99.90
52565;DHT22;38460;53.106;7.004;2022-07-23T00:38:58;14.60;99.90
52565;DHT22;38460;53.106;7.004;2022-07-23T00:41:24;14.60;99.90
52565;DHT22;38460;53.106;7.004;2022-07-23T00:43:49;14.50;99.90
52565;DHT22;38460;53.106;7.004;2022-07-23T00:46:22;14.60;99.90
52565;DHT22;38460;53.106;7.004;2022-07-23T00:48:48;14.50;99.90
52565;DHT22;38460;53.106;7.004;2022-07-23T00:51:17;14.50;99.90
52565;DHT22;38460;53.106;7.004;2022-07-23T00:53:44;14.50;99.90
52565;DHT22;38460;53.106;7.004;2022-07-23T00:56:10;14.50;99.90
52565;DHT22;38460;53.106;7.004;2022-07-23T00:58:36;14.50;99.90
52565;DHT22;38460;53.106;7.004;2022-07-23T01:01:04;14.50;99.90
52565;DHT22;38460;53.106;7.004;2022-07-23T01:03:29;14.50;99.90
52565;DHT22;38460;53.106;7.004;2022-07-23T01:05:55;14.40;99.90
52565;DHT22;38460;53.106;7.004;2022-07-23T01:08:22;14.40;99.90
52565;DHT22;38460;53.106;7.004;2022-07-23T01:10:49;14.40;99.90
52565;DHT22;38460;53.106;7.004;2022-07-23T01:13:16;14.30;99.90
52565;DHT22;38460;53.106;7.004;2022-07-23T01:15:42;14.30;99.90
52565;DHT22;38460;53.106;7.004;2022-07-23T01:18:08;14.30;99.90
52565;DHT22;38460;53.106;7.004;2022-07-23T01:20:35;14.20;99.90
52565;DHT22;38460;53.106;7.004;2022-07-23T01:23:01;14.20;99.90
52565;DHT22;38460;53.106;7.004;2022-07-23T01:25:26;14.20;99.90
52565;DHT22;38460;53.106;7.004;2022-07-23T01:27:53;14.10;99.90
52565;DHT22;38460;53.106;7.004;2022-07-23T01:30:19;14.10;99.90
52565;DHT22;38460;53.106;7.004;2022-07-23T01:32:45;14.00;99.90
52565;DHT22;38460;53.106;7.004;2022-07-23T01:35:11;14.00;99.90
52565;DHT22;38460;53.106;7.004;2022-07-23T01:37:38;14.00;99.90
52565;DHT22;38460;53.106;7.004;2022-07-23T01:40:04;14.00;99.90
52565;DHT22;38460;53.106;7.004;2022-07-23T01:42:30;13.90;99.90
52565;DHT22;38460;53.106;7.004;2022-07-23T01:44:56;13.90;99.90
52565;DHT22;38460;53.106;7.004;2022-07-23T01:47:22;13.80;99.90
52565;DHT22;38460;53.106;7.004;2022-07-23T01:49:48;13.80;99.90
52565;DHT22;38460;53.106;7.004;2022-07-23T01:52:13;13.80;99.90
52565;DHT22;38460;53.106;7.004;2022-07-23T01:54:39;13.70;99.90
52565;DHT22;38460;53.106;7.004;2022-07-23T01:57:06;13.70;99.90
52565;DHT22;38460;53.106;7.004;2022-07-23T01:59:32;13.70;99.90
52565;DHT22;38460;53.106;7.004;2022-07-23T02:01:58;13.70;99.90
52565;DHT22;38460;53.106;7.004;2022-07-23T02:04:24;13.70;99.90
52565;DHT22;38460;53.106;7.004;2022-07-23T02:06:51;13.60;99.90
52565;DHT22;38460;53.106;7.004;2022-07-23T02:09:17;13.60;99.90
52565;DHT22;38460;53.106;7.004;2022-07-23T02:11:43;13.60;99.90
52565;DHT22;38460;53.106;7.004;2022-07-23T02:14:09;13.60;99.90
52565;DHT22;38460;53.106;7.004;2022-07-23T02:16:35;13.50;99.90
52565;DHT22;38460;53.106;7.004;2022-07-23T02:19:01;13.50;99.90
52565;DHT22;38460;53.106;7.004;2022-07-23T02:21:27;13.50;99.90
52565;DHT22;38460;53.106;7.004;2022-07-23T02:23:52;13.50;99.90
52565;DHT22;38460;53.106;7.004;2022-07-23T02:26:18;13.40;99.90
52565;DHT22;38460;53.106;7.004;2022-07-23T02:28:44;13.40;99.90
52565;DHT22;38460;53.106;7.004;2022-07-23T02:31:09;13.40;99.90
52565;DHT22;38460;53.106;7.004;2022-07-23T02:33:35;13.40;99.90
52565;DHT22;38460;53.106;7.004;2022-07-23T02:36:01;13.30;99.90
52565;DHT22;38460;53.106;7.004;2022-07-23T02:38:26;13.30;99.90
52565;DHT22;38460;53.106;7.004;2022-07-23T02:40:52;13.30;99.90
52565;DHT22;38460;53.106;7.004;2022-07-23T02:43:18;13.30;99.90
52565;DHT22;38460;53.106;7.004;2022-07-23T02:45:43;13.30;99.90
52565;DHT22;38460;53.106;7.004;2022-07-23T02:48:09;13.30;99.90
52565;DHT22;38460;53.106;7.004;2022-07-23T02:50:38;13.20;99.90
52565;DHT22;38460;53.106;7.004;2022-07-23T02:53:04;13.20;99.90
52565;DHT22;38460;53.106;7.004;2022-07-23T02:55:29;13.20;99.90
52565;DHT22;38460;53.106;7.004;2022-07-23T02:57:56;13.20;99.90
52565;DHT22;38460;53.106;7.004;2022-07-23T03:00:23;13.10;99.90
52565;DHT22;38460;53.106;7.004;2022-07-23T03:02:48;13.20;99.90
52565;DHT22;38460;53.106;7.004;2022-07-23T03:05:14;13.10;99.90
52565;DHT22;38460;53.106;7.004;2022-07-23T03:07:40;13.10;99.90
52565;DHT22;38460;53.106;7.004;2022-07-23T03:10:06;13.10;99.90
52565;DHT22;38460;53.106;7.004;2022-07-23T03:12:31;13.00;99.90
52565;DHT22;38460;53.106;7.004;2022-07-23T03:14:57;13.00;99.90
52565;DHT22;38460;53.106;7.004;2022-07-23T03:17:23;13.00;99.90
52565;DHT22;38460;53.106;7.004;2022-07-23T03:19:49;13.00;99.90
52565;DHT22;38460;53.106;7.004;2022-07-23T03:22:14;12.90;99.90
52565;DHT22;38460;53.106;7.004;2022-07-23T03:24:40;12.90;99.90
52565;DHT22;38460;53.106;7.004;2022-07-23T03:27:22;12.80;99.90
52565;DHT22;38460;53.106;7.004;2022-07-23T03:29:50;12.80;99.90
52565;DHT22;38460;53.106;7.004;2022-07-23T03:32:17;12.80;99.90
52565;DHT22;38460;53.106;7.004;2022-07-23T03:34:42;12.70;99.90
52565;DHT22;38460;53.106;7.004;2022-07-23T03:37:08;12.70;99.90
52565;DHT22;38460;53.106;7.004;2022-07-23T03:39:34;12.70;99.90
52565;DHT22;38460;53.106;7.004;2022-07-23T03:41:59;12.70;99.90
52565;DHT22;38460;53.106;7.004;2022-07-23T03:44:25;12.70;99.90
52565;DHT22;38460;53.106;7.004;2022-07-23T03:46:51;12.60;99.90
52565;DHT22;38460;53.106;7.004;2022-07-23T03:49:17;12.70;99.90
52565;DHT22;38460;53.106;7.004;2022-07-23T03:51:43;12.60;99.90
52565;DHT22;38460;53.106;7.004;2022-07-23T03:54:09;12.60;99.90
52565;DHT22;38460;53.106;7.004;2022-07-23T03:56:34;12.60;99.90
52565;DHT22;38460;53.106;7.004;2022-07-23T03:59:00;12.60;99.90
52565;DHT22;38460;53.106;7.004;2022-07-23T04:01:26;12.60;99.90
52565;DHT22;38460;53.106;7.004;2022-07-23T04:03:52;12.60;99.90
52565;DHT22;38460;53.106;7.004;2022-07-23T04:06:18;12.50;99.90
52565;DHT22;38460;53.106;7.004;2022-07-23T04:08:43;12.50;99.90
52565;DHT22;38460;53.106;7.004;2022-07-23T04:11:09;12.50;99.90
52565;DHT22;38460;53.106;7.004;2022-07-23T04:13:35;12.50;99.90
52565;DHT22;38460;53.106;7.004;2022-07-23T04:16:01;12.60;99.90
52565;DHT22;38460;53.106;7.004;2022-07-23T04:18:26;12.60;99.90
52565;DHT22;38460;53.106;7.004;2022-07-23T04:20:52;12.60;99.90
52565;DHT22;38460;53.106;7.004;2022-07-23T04:23:18;12.60;99.90
52565;DHT22;38460;53.106;7.004;2022-07-23T04:25:44;12.60;99.90
52565;DHT22;38460;53.106;7.004;2022-07-23T04:28:10;12.60;99.90
52565;DHT22;38460;53.106;7.004;2022-07-23T04:30:36;12.70;99.90
52565;DHT22;38460;53.106;7.004;2022-07-23T04:33:01;12.70;99.90
52565;DHT22;38460;53.106;7.004;2022-07-23T04:35:31;12.70;99.90
52565;DHT22;38460;53.106;7.004;2022-07-23T04:37:56;12.70;99.90
52565;DHT22;38460;53.106;7.004;2022-07-23T04:40:22;12.80;99.90
52565;DHT22;38460;53.106;7.004;2022-07-23T04:42:48;12.80;99.90
52565;DHT22;38460;53.106;7.004;2022-07-23T04:45:13;12.80;99.90
52565;DHT22;38460;53.106;7.004;2022-07-23T04:47:39;12.90;99.90
52565;DHT22;38460;53.106;7.004;2022-07-23T04:50:05;12.90;99.90
52565;DHT22;38460;53.106;7.004;2022-07-23T04:52:31;12.90;99.90
52565;DHT22;38460;53.106;7.004;2022-07-23T04:54:56;12.90;99.90
52565;DHT22;38460;53.106;7.004;2022-07-23T04:57:22;12.90;99.90
52565;DHT22;38460;53.106;7.004;2022-07-23T04:59:48;13.00;99.90
52565;DHT22;38460;53.106;7.004;2022-07-23T05:02:14;13.00;99.90
52565;DHT22;38460;53.106;7.004;2022-07-23T05:04:39;13.00;99.90
52565;DHT22;38460;53.106;7.004;2022-07-23T05:07:05;13.10;99.90
52565;DHT22;38460;53.106;7.004;2022-07-23T05:09:31;13.10;99.90
52565;DHT22;38460;53.106;7.004;2022-07-23T05:11:57;13.10;99.90
52565;DHT22;38460;53.106;7.004;2022-07-23T05:14:23;13.10;99.90
52565;DHT22;38460;53.106;7.004;2022-07-23T05:16:49;13.10;99.90
52565;DHT22;38460;53.106;7.004;2022-07-23T05:19:14;13.20;99.90
52565;DHT22;38460;53.106;7.004;2022-07-23T05:21:40;13.10;99.90
52565;DHT22;38460;53.106;7.004;2022-07-23T05:24:06;13.10;99.90
52565;DHT22;38460;53.106;7.004;2022-07-23T05:26:32;13.20;99.90
52565;DHT22;38460;53.106;7.004;2022-07-23T05:28:57;13.20;99.90
52565;DHT22;38460;53.106;7.004;2022-07-23T05:31:24;13.20;99.90
52565;DHT22;38460;53.106;7.004;2022-07-23T05:33:49;13.30;99.90
52565;DHT22;38460;53.106;7.004;2022-07-23T05:36:15;13.40;99.90
52565;DHT22;38460;53.106;7.004;2022-07-23T05:38:41;13.40;99.90
52565;DHT22;38460;53.106;7.004;2022-07-23T05:41:07;13.50;99.90
52565;DHT22;38460;53.106;7.004;2022-07-23T05:43:32;13.50;99.90
52565;DHT22;38460;53.106;7.004;2022-07-23T05:45:58;13.70;99.90
52565;DHT22;38460;53.106;7.004;2022-07-23T05:48:24;13.70;99.90
52565;DHT22;38460;53.106;7.004;2022-07-23T05:50:49;13.80;99.90
52565;DHT22;38460;53.106;7.004;2022-07-23T05:53:15;13.90;99.90
52565;DHT22;38460;53.106;7.004;2022-07-23T05:55:41;13.90;99.90
52565;DHT22;38460;53.106;7.004;2022-07-23T05:58:07;14.00;99.90
52565;DHT22;38460;53.106;7.004;2022-07-23T06:00:34;14.00;99.90
52565;DHT22;38460;53.106;7.004;2022-07-23T06:03:00;14.10;99.90
52565;DHT22;38460;53.106;7.004;2022-07-23T06:05:26;14.20;99.90
52565;DHT22;38460;53.106;7.004;2022-07-23T06:07:51;14.30;99.90
52565;DHT22;38460;53.106;7.004;2022-07-23T06:10:18;14.30;99.90
52565;DHT22;38460;53.106;7.004;2022-07-23T06:12:44;14.40;99.90
52565;DHT22;38460;53.106;7.004;2022-07-23T06:15:10;14.50;99.90
52565;DHT22;38460;53.106;7.004;2022-07-23T06:17:36;14.50;99.90
52565;DHT22;38460;53.106;7.004;2022-07-23T06:20:06;14.60;99.90
52565;DHT22;38460;53.106;7.004;2022-07-23T06:22:31;14.60;99.90
52565;DHT22;38460;53.106;7.004;2022-07-23T06:24:57;14.70;99.90
52565;DHT22;38460;53.106;7.004;2022-07-23T06:27:23;14.80;99.90
52565;DHT22;38460;53.106;7.004;2022-07-23T06:29:48;14.80;99.90
52565;DHT22;38460;53.106;7.004;2022-07-23T06:32:14;14.90;99.90
52565;DHT22;38460;53.106;7.004;2022-07-23T06:34:40;14.90;99.90
52565;DHT22;38460;53.106;7.004;2022-07-23T06:37:06;15.00;99.90
52565;DHT22;38460;53.106;7.004;2022-07-23T06:39:31;15.10;99.90
52565;DHT22;38460;53.106;7.004;2022-07-23T06:41:57;15.10;99.90
52565;DHT22;38460;53.106;7.004;2022-07-23T06:44:23;15.10;99.90
52565;DHT22;38460;53.106;7.004;2022-07-23T06:46:48;15.20;99.90
52565;DHT22;38460;53.106;7.004;2022-07-23T06:49:14;15.20;99.90
52565;DHT22;38460;53.106;7.004;2022-07-23T06:51:40;15.20;99.90
52565;DHT22;38460;53.106;7.004;2022-07-23T06:54:06;15.30;99.90
52565;DHT22;38460;53.106;7.004;2022-07-23T06:56:32;15.30;99.90
52565;DHT22;38460;53.106;7.004;2022-07-23T06:58:57;15.40;99.90
52565;DHT22;38460;53.106;7.004;2022-07-23T07:01:23;15.50;99.90
52565;DHT22;38460;53.106;7.004;2022-07-23T07:03:49;15.60;99.90
52565;DHT22;38460;53.106;7.004;2022-07-23T07:06:14;15.70;99.90
52565;DHT22;38460;53.106;7.004;2022-07-23T07:08:40;15.70;99.90
52565;DHT22;38460;53.106;7.004;2022-07-23T07:11:08;15.80;99.90
52565;DHT22;38460;53.106;7.004;2022-07-23T07:13:34;15.80;99.90
52565;DHT22;38460;53.106;7.004;2022-07-23T07:15:59;15.90;99.90
52565;DHT22;38460;53.106;7.004;2022-07-23T07:18:26;15.90;99.90
52565;DHT22;38460;53.106;7.004;2022-07-23T07:20:51;16.00;99.90
52565;DHT22;38460;53.106;7.004;2022-07-23T07:23:17;16.00;99.90
52565;DHT22;38460;53.106;7.004;2022-07-23T07:25:43;16.10;99.90
52565;DHT22;38460;53.106;7.004;2022-07-23T07:28:09;16.10;99.90
52565;DHT22;38460;53.106;7.004;2022-07-23T07:30:34;16.20;99.90
52565;DHT22;38460;53.106;7.004;2022-07-23T07:33:00;16.20;99.90
52565;DHT22;38460;53.106;7.004;2022-07-23T07:35:26;16.30;99.90
52565;DHT22;38460;53.106;7.004;2022-07-23T07:37:52;16.40;99.90
52565;DHT22;38460;53.106;7.004;2022-07-23T07:40:17;16.50;99.90
52565;DHT22;38460;53.106;7.004;2022-07-23T07:42:46;16.50;99.90
52565;DHT22;38460;53.106;7.004;2022-07-23T07:45:12;16.60;99.90
52565;DHT22;38460;53.106;7.004;2022-07-23T07:47:38;16.60;99.90
52565;DHT22;38460;53.106;7.004;2022-07-23T07:50:03;16.70;99.90
52565;DHT22;38460;53.106;7.004;2022-07-23T07:52:29;16.80;99.90
52565;DHT22;38460;53.106;7.004;2022-07-23T07:54:55;16.80;99.90
52565;DHT22;38460;53.106;7.004;2022-07-23T07:57:21;16.90;99.90
52565;DHT22;38460;53.106;7.004;2022-07-23T07:59:46;16.90;99.90
52565;DHT22;38460;53.106;7.004;2022-07-23T08:02:12;17.00;99.90
52565;DHT22;38460;53.106;7.004;2022-07-23T08:04:38;17.00;99.90
52565;DHT22;38460;53.106;7.004;2022-07-23T08:07:03;17.10;99.90
52565;DHT22;38460;53.106;7.004;2022-07-23T08:09:29;17.10;99.90
52565;DHT22;38460;53.106;7.004;2022-07-23T08:11:55;17.10;99.90
52565;DHT22;38460;53.106;7.004;2022-07-23T08:14:21;17.20;99.90
52565;DHT22;38460;53.106;7.004;2022-07-23T08:16:47;17.20;99.90
52565;DHT22;38460;53.106;7.004;2022-07-23T08:19:12;17.20;99.90
52565;DHT22;38460;53.106;7.004;2022-07-23T08:21:38;17.20;99.90
52565;DHT22;38460;53.106;7.004;2022-07-23T08:24:04;17.30;99.90
52565;DHT22;38460;53.106;7.004;2022-07-23T08:26:30;17.30;99.90
52565;DHT22;38460;53.106;7.004;2022-07-23T08:28:55;17.30;99.90
52565;DHT22;38460;53.106;7.004;2022-07-23T08:31:24;17.30;99.90
52565;DHT22;38460;53.106;7.004;2022-07-23T08:33:49;17.30;99.90
52565;DHT22;38460;53.106;7.004;2022-07-23T08:36:15;17.40;99.90
52565;DHT22;38460;53.106;7.004;2022-07-23T08:38:41;17.40;99.90
52565;DHT22;38460;53.106;7.004;2022-07-23T08:41:08;17.40;99.90
52565;DHT22;38460;53.106;7.004;2022-07-23T08:43:35;17.50;99.90
52565;DHT22;38460;53.106;7.004;2022-07-23T08:46:02;17.60;99.90
52565;DHT22;38460;53.106;7.004;2022-07-23T08:48:32;17.70;99.90
52565;DHT22;38460;53.106;7.004;2022-07-23T08:51:00;17.70;99.90
52565;DHT22;38460;53.106;7.004;2022-07-23T08:53:27;17.90;99.90
52565;DHT22;38460;53.106;7.004;2022-07-23T08:55:56;18.00;99.90
52565;DHT22;38460;53.106;7.004;2022-07-23T08:58:22;18.00;99.90
52565;DHT22;38460;53.106;7.004;2022-07-23T09:00:48;18.20;99.90
52565;DHT22;38460;53.106;7.004;2022-07-23T09:03:22;18.20;99.90
52565;DHT22;38460;53.106;7.004;2022-07-23T09:05:52;18.30;99.90
52565;DHT22;38460;53.106;7.004;2022-07-23T09:08:37;18.30;99.90
52565;DHT22;38460;53.106;7.004;2022-07-23T09:11:08;18.30;99.90
52565;DHT22;38460;53.106;7.004;2022-07-23T09:13:52;18.30;99.90
52565;DHT22;38460;53.106;7.004;2022-07-23T09:16:24;18.40;99.90
52565;DHT22;38460;53.106;7.004;2022-07-23T09:18:53;18.30;99.90
52565;DHT22;38460;53.106;7.004;2022-07-23T09:21:22;18.40;99.90
52565;DHT22;38460;53.106;7.004;2022-07-23T09:23:50;18.40;99.90
52565;DHT22;38460;53.106;7.004;2022-07-23T09:31:22;18.50;99.90
52565;DHT22;38460;53.106;7.004;2022-07-23T09:33:48;18.70;99.90
52565;DHT22;38460;53.106;7.004;2022-07-23T09:36:14;18.60;99.90
52565;DHT22;38460;53.106;7.004;2022-07-23T09:38:50;18.60;99.90
52565;DHT22;38460;53.106;7.004;2022-07-23T09:41:16;18.80;99.90
52565;DHT22;38460;53.106;7.004;2022-07-23T09:43:42;18.80;99.90
52565;DHT22;38460;53.106;7.004;2022-07-23T09:46:26;18.80;99.90
52565;DHT22;38460;53.106;7.004;2022-07-23T09:48:54;18.90;99.90
52565;DHT22;38460;53.106;7.004;2022-07-23T09:51:22;18.90;99.90
52565;DHT22;38460;53.106;7.004;2022-07-23T09:53:57;18.90;99.90
52565;DHT22;38460;53.106;7.004;2022-07-23T09:56:23;18.80;99.90
52565;DHT22;38460;53.106;7.004;2022-07-23T09:58:51;18.80;99.90
52565;DHT22;38460;53.106;7.004;2022-07-23T10:01:18;18.80;99.90
52565;DHT22;38460;53.106;7.004;2022-07-23T10:03:46;18.80;99.90
52565;DHT22;38460;53.106;7.004;2022-07-23T10:06:13;18.80;99.90
52565;DHT22;38460;53.106;7.004;2022-07-23T10:08:41;18.90;99.90
52565;DHT22;38460;53.106;7.004;2022-07-23T10:11:09;18.90;99.90
52565;DHT22;38460;53.106;7.004;2022-07-23T10:13:36;19.00;99.90
52565;DHT22;38460;53.106;7.004;2022-07-23T10:16:21;19.10;99.90
52565;DHT22;38460;53.106;7.004;2022-07-23T10:18:47;19.00;99.90
52565;DHT22;38460;53.106;7.004;2022-07-23T10:27:20;19.30;99.90
52565;DHT22;38460;53.106;7.004;2022-07-23T10:29:57;19.40;99.90
52565;DHT22;38460;53.106;7.004;2022-07-23T10:32:47;19.40;99.90
52565;DHT22;38460;53.106;7.004;2022-07-23T10:37:59;19.50;99.90
52565;DHT22;38460;53.106;7.004;2022-07-23T10:40:26;19.50;99.90
52565;DHT22;38460;53.106;7.004;2022-07-23T10:42:52;19.50;99.90
52565;DHT22;38460;53.106;7.004;2022-07-23T10:47:50;19.60;99.90
52565;DHT22;38460;53.106;7.004;2022-07-23T10:50:24;19.70;99.90
52565;DHT22;38460;53.106;7.004;2022-07-23T10:58:05;20.10;99.90
52565;DHT22;38460;53.106;7.004;2022-07-23T11:00:32;20.20;99.90
52565;DHT22;38460;53.106;7.004;2022-07-23T11:03:00;20.20;99.90
52565;DHT22;38460;53.106;7.004;2022-07-23T11:10:34;20.00;99.90
52565;DHT22;38460;53.106;7.004;2022-07-23T11:16:07;20.10;99.90
52565;DHT22;38460;53.106;7.004;2022-07-23T11:26:52;20.20;99.90
52565;DHT22;38460;53.106;7.004;2022-07-23T11:32:06;20.20;99.90
52565;DHT22;38460;53.106;7.004;2022-07-23T11:37:07;20.20;99.90
52565;DHT22;38460;53.106;7.004;2022-07-23T11:39:33;20.20;99.90
52565;DHT22;38460;53.106;7.004;2022-07-23T11:42:01;20.20;99.90
52565;DHT22;38460;53.106;7.004;2022-07-23T11:44:29;20.20;99.90
52565;DHT22;38460;53.106;7.004;2022-07-23T11:46:59;20.30;99.90
52565;DHT22;38460;53.106;7.004;2022-07-23T11:49:25;20.30;99.90
52565;DHT22;38460;53.106;7.004;2022-07-23T11:52:12;20.40;99.90
52565;DHT22;38460;53.106;7.004;2022-07-23T11:55:08;20.50;99.90
52565;DHT22;38460;53.106;7.004;2022-07-23T11:57:39;20.50;99.90
52565;DHT22;38460;53.106;7.004;2022-07-23T12:00:10;20.60;99.90
52565;DHT22;38460;53.106;7.004;2022-07-23T12:02:37;20.60;99.90
52565;DHT22;38460;53.106;7.004;2022-07-23T12:05:04;20.60;99.90
52565;DHT22;38460;53.106;7.004;2022-07-23T12:07:36;20.80;99.90
52565;DHT22;38460;53.106;7.004;2022-07-23T12:12:40;21.00;99.90
52565;DHT22;38460;53.106;7.004;2022-07-23T12:15:07;21.10;99.90
52565;DHT22;38460;53.106;7.004;2022-07-23T12:17:36;21.10;99.90
52565;DHT22;38460;53.106;7.004;2022-07-23T12:20:08;21.30;99.90
52565;DHT22;38460;53.106;7.004;2022-07-23T12:22:35;21.30;99.90
52565;DHT22;38460;53.106;7.004;2022-07-23T12:25:06;21.30;99.90
52565;DHT22;38460;53.106;7.004;2022-07-23T12:27:33;21.30;99.90
52565;DHT22;38460;53.106;7.004;2022-07-23T12:30:14;21.30;99.90
52565;DHT22;38460;53.106;7.004;2022-07-23T12:32:43;21.40;99.90
52565;DHT22;38460;53.106;7.004;2022-07-23T12:35:09;21.40;99.60
52565;DHT22;38460;53.106;7.004;2022-07-23T12:37:37;21.40;99.90
52565;DHT22;38460;53.106;7.004;2022-07-23T12:40:45;21.50;99.70
52565;DHT22;38460;53.106;7.004;2022-07-23T12:43:27;21.70;99.20
52565;DHT22;38460;53.106;7.004;2022-07-23T12:46:10;21.80;99.90
52565;DHT22;38460;53.106;7.004;2022-07-23T12:48:53;21.90;99.90
52565;DHT22;38460;53.106;7.004;2022-07-23T12:53:54;22.10;99.60
52565;DHT22;38460;53.106;7.004;2022-07-23T12:58:50;21.90;99.00
52565;DHT22;38460;53.106;7.004;2022-07-23T13:03:58;22.00;99.90
52565;DHT22;38460;53.106;7.004;2022-07-23T13:06:26;21.90;98.30
52565;DHT22;38460;53.106;7.004;2022-07-23T13:08:52;21.90;99.20
52565;DHT22;38460;53.106;7.004;2022-07-23T13:11:17;21.90;98.70
52565;DHT22;38460;53.106;7.004;2022-07-23T13:13:43;22.00;99.20
52565;DHT22;38460;53.106;7.004;2022-07-23T13:16:09;21.90;99.50
52565;DHT22;38460;53.106;7.004;2022-07-23T13:18:35;21.90;99.60
52565;DHT22;38460;53.106;7.004;2022-07-23T13:21:01;21.70;99.30
52565;DHT22;38460;53.106;7.004;2022-07-23T13:23:27;21.60;99.30
52565;DHT22;38460;53.106;7.004;2022-07-23T13:25:53;21.60;99.40
52565;DHT22;38460;53.106;7.004;2022-07-23T13:28:19;21.70;99.80
52565;DHT22;38460;53.106;7.004;2022-07-23T13:30:47;21.80;99.40
52565;DHT22;38460;53.106;7.004;2022-07-23T13:33:19;21.80;99.50
52565;DHT22;38460;53.106;7.004;2022-07-23T13:35:45;21.80;99.30
52565;DHT22;38460;53.106;7.004;2022-07-23T13:38:10;21.60;98.70
52565;DHT22;38460;53.106;7.004;2022-07-23T13:40:42;21.60;98.50
52565;DHT22;38460;53.106;7.004;2022-07-23T13:43:10;21.60;98.90
52565;DHT22;38460;53.106;7.004;2022-07-23T13:45:37;21.80;99.10
52565;DHT22;38460;53.106;7.004;2022-07-23T13:48:04;22.00;98.90
52565;DHT22;38460;53.106;7.004;2022-07-23T13:50:30;22.30;98.80
52565;DHT22;38460;53.106;7.004;2022-07-23T13:52:55;22.70;99.10
52565;DHT22;38460;53.106;7.004;2022-07-23T13:55:21;23.00;98.60
52565;DHT22;38460;53.106;7.004;2022-07-23T13:57:47;23.10;97.50
52565;DHT22;38460;53.106;7.004;2022-07-23T14:00:14;23.40;97.50
52565;DHT22;38460;53.106;7.004;2022-07-23T14:02:40;23.70;97.70
52565;DHT22;38460;53.106;7.004;2022-07-23T14:05:08;23.80;97.40
52565;DHT22;38460;53.106;7.004;2022-07-23T14:07:35;24.00;95.60
52565;DHT22;38460;53.106;7.004;2022-07-23T14:10:03;24.20;96.20
52565;DHT22;38460;53.106;7.004;2022-07-23T14:12:30;24.40;95.80
52565;DHT22;38460;53.106;7.004;2022-07-23T14:14:56;24.60;95.70
52565;DHT22;38460;53.106;7.004;2022-07-23T14:17:22;24.50;95.80
52565;DHT22;38460;53.106;7.004;2022-07-23T14:19:48;24.10;94.60
52565;DHT22;38460;53.106;7.004;2022-07-23T14:22:14;24.00;95.60
52565;DHT22;38460;53.106;7.004;2022-07-23T14:24:40;23.80;95.70
52565;DHT22;38460;53.106;7.004;2022-07-23T14:27:06;23.50;95.90
52565;DHT22;38460;53.106;7.004;2022-07-23T14:29:32;23.50;96.00
52565;DHT22;38460;53.106;7.004;2022-07-23T14:31:59;23.40;96.10
52565;DHT22;38460;53.106;7.004;2022-07-23T14:34:25;23.30;96.10
52565;DHT22;38460;53.106;7.004;2022-07-23T14:36:51;23.30;96.20
52565;DHT22;38460;53.106;7.004;2022-07-23T14:39:17;23.30;96.50
52565;DHT22;38460;53.106;7.004;2022-07-23T14:41:43;23.20;96.30
52565;DHT22;38460;53.106;7.004;2022-07-23T14:44:09;23.20;96.40
52565;DHT22;38460;53.106;7.004;2022-07-23T14:46:35;23.30;96.50
52565;DHT22;38460;53.106;7.004;2022-07-23T14:49:02;23.50;96.20
52565;DHT22;38460;53.106;7.004;2022-07-23T14:51:28;23.80;96.40
52565;DHT22;38460;53.106;7.004;2022-07-23T14:53:53;24.10;96.20
52565;DHT22;38460;53.106;7.004;2022-07-23T14:56:19;24.00;95.50
52565;DHT22;38460;53.106;7.004;2022-07-23T14:58:45;23.90;94.90
52565;DHT22;38460;53.106;7.004;2022-07-23T15:01:11;23.90;95.00
52565;DHT22;38460;53.106;7.004;2022-07-23T15:03:37;24.00;95.10
52565;DHT22;38460;53.106;7.004;2022-07-23T15:06:03;24.20;95.50
52565;DHT22;38460;53.106;7.004;2022-07-23T15:08:29;24.40;95.10
52565;DHT22;38460;53.106;7.004;2022-07-23T15:10:55;24.60;94.50
52565;DHT22;38460;53.106;7.004;2022-07-23T15:13:21;24.40;94.30
52565;DHT22;38460;53.106;7.004;2022-07-23T15:15:46;24.10;94.00
52565;DHT22;38460;53.106;7.004;2022-07-23T15:18:12;23.90;94.00
52565;DHT22;38460;53.106;7.004;2022-07-23T15:20:38;23.70;94.30
52565;DHT22;38460;53.106;7.004;2022-07-23T15:23:07;23.60;94.50
52565;DHT22;38460;53.106;7.004;2022-07-23T15:25:33;23.50;94.20
52565;DHT22;38460;53.106;7.004;2022-07-23T15:27:58;23.30;94.80
52565;DHT22;38460;53.106;7.004;2022-07-23T15:30:25;23.30;95.10
52565;DHT22;38460;53.106;7.004;2022-07-23T15:32:51;23.50;95.20
52565;DHT22;38460;53.106;7.004;2022-07-23T15:35:19;23.40;94.60
52565;DHT22;38460;53.106;7.004;2022-07-23T15:37:45;23.30;94.60
52565;DHT22;38460;53.106;7.004;2022-07-23T15:40:11;23.20;94.80
52565;DHT22;38460;53.106;7.004;2022-07-23T15:42:37;23.20;94.90
52565;DHT22;38460;53.106;7.004;2022-07-23T15:45:04;23.20;94.90
52565;DHT22;38460;53.106;7.004;2022-07-23T15:47:30;23.10;94.80
52565;DHT22;38460;53.106;7.004;2022-07-23T15:49:56;23.10;95.00
52565;DHT22;38460;53.106;7.004;2022-07-23T15:52:22;23.10;95.30
52565;DHT22;38460;53.106;7.004;2022-07-23T15:54:48;23.10;95.40
52565;DHT22;38460;53.106;7.004;2022-07-23T15:57:13;23.10;95.10
52565;DHT22;38460;53.106;7.004;2022-07-23T15:59:39;23.10;95.20
52565;DHT22;38460;53.106;7.004;2022-07-23T16:02:05;23.20;95.30
52565;DHT22;38460;53.106;7.004;2022-07-23T16:04:31;23.20;95.40
52565;DHT22;38460;53.106;7.004;2022-07-23T16:06:57;23.20;95.50
52565;DHT22;38460;53.106;7.004;2022-07-23T16:09:23;23.20;95.80
52565;DHT22;38460;53.106;7.004;2022-07-23T16:11:49;23.20;95.90
52565;DHT22;38460;53.106;7.004;2022-07-23T16:14:15;23.30;95.70
52565;DHT22;38460;53.106;7.004;2022-07-23T16:16:41;23.30;95.70
52565;DHT22;38460;53.106;7.004;2022-07-23T16:19:07;23.40;95.50
52565;DHT22;38460;53.106;7.004;2022-07-23T16:21:33;23.50;95.40